Time;durP1;ratioP1;P1;durP2;ratioP2;P2;SDS_P1;SDS_P2;PMS_P1;PMS_P2;Temp;Humidity;BMP_temperature;BMP_pressure;BME280_temperature;BME280_humidity;BME280_pressure;Samples;Min_cycle;Max_cycle;Signal;HPM_P1;HPM_P2
2022/04/01 00:00:13;;;;;;;5.93;3.40;;;20.80;47.20;;;;;;4994912;28;20038;-74
2022/04/01 00:02:39;;;;;;;5.38;3.35;;;20.80;47.10;;;;;;4994564;28;20026;-75
2022/04/01 00:05:06;;;;;;;6.10;3.22;;;20.80;47.00;;;;;;5012377;28;20026;-74
2022/04/01 00:07:33;;;;;;;5.45;3.20;;;20.80;47.00;;;;;;4994660;28;20480;-74
2022/04/01 00:10:03;;;;;;;6.65;3.22;;;20.80;47.00;;;;;;4978948;28;20478;-74
2022/04/01 00:12:29;;;;;;;8.52;3.10;;;20.90;46.90;;;;;;4994577;28;20037;-74
2022/04/01 00:14:55;;;;;;;6.57;3.30;;;20.90;46.90;;;;;;5011933;28;20030;-74
2022/04/01 00:17:21;;;;;;;5.30;3.33;;;20.90;46.90;;;;;;5012131;28;20026;-74
2022/04/01 00:19:47;;;;;;;6.53;3.15;;;20.90;46.80;;;;;;4962549;28;20061;-74
2022/04/01 00:22:12;;;;;;;4.93;3.00;;;20.80;46.70;;;;;;4994133;28;20045;-74
2022/04/01 00:24:38;;;;;;;4.95;3.00;;;20.80;46.70;;;;;;4994444;28;20421;-75
2022/04/01 00:27:04;;;;;;;6.90;3.58;;;20.80;46.70;;;;;;5012086;28;20045;-74
2022/04/01 00:29:30;;;;;;;5.53;3.08;;;20.80;46.60;;;;;;4994633;28;20069;-74
2022/04/01 00:32:00;;;;;;;4.95;3.30;;;20.80;46.60;;;;;;5011377;28;20073;-74
2022/04/01 00:34:30;;;;;;;5.57;3.08;;;20.80;46.60;;;;;;4994475;28;20084;-74
2022/04/01 00:36:57;;;;;;;6.47;3.63;;;20.80;46.60;;;;;;4994329;28;20506;-74
2022/04/01 00:39:25;;;;;;;5.70;3.35;;;20.80;46.50;;;;;;4978161;28;20050;-74
2022/04/01 00:41:52;;;;;;;4.72;2.83;;;20.80;46.50;;;;;;5011576;28;20418;-74
2022/04/01 00:44:18;;;;;;;6.10;3.38;;;20.80;46.50;;;;;;4994166;28;20033;-74
2022/04/01 00:46:45;;;;;;;4.63;3.00;;;20.80;46.50;;;;;;4994144;28;20034;-73
2022/04/01 00:49:12;;;;;;;5.50;3.10;;;20.80;46.40;;;;;;4994199;28;20402;-74
2022/04/01 00:51:40;;;;;;;5.30;2.90;;;20.80;46.40;;;;;;4978148;28;20026;-74
2022/04/01 00:54:06;;;;;;;7.13;2.85;;;20.80;46.40;;;;;;4993776;28;20057;-73
2022/04/01 00:56:33;;;;;;;5.68;2.90;;;20.80;46.30;;;;;;4977948;28;20061;-75
2022/04/01 00:58:59;;;;;;;7.07;3.35;;;20.80;46.30;;;;;;4994045;28;20408;-75
2022/04/01 01:01:26;;;;;;;7.53;3.05;;;20.80;46.30;;;;;;4994276;28;20025;-75
2022/04/01 01:03:52;;;;;;;5.60;3.03;;;20.80;46.30;;;;;;4993514;28;20036;-75
2022/04/01 01:06:21;;;;;;;5.68;3.05;;;20.80;46.30;;;;;;4999972;28;20030;-75
2022/04/01 01:08:48;;;;;;;6.57;3.00;;;20.80;46.20;;;;;;5000596;28;20101;-75
2022/04/01 01:11:14;;;;;;;4.63;2.60;;;20.80;46.20;;;;;;5000516;28;20025;-75
2022/04/01 01:13:40;;;;;;;5.72;3.03;;;20.80;46.20;;;;;;4967705;28;20520;-75
2022/04/01 01:16:07;;;;;;;6.15;3.05;;;20.80;46.10;;;;;;5000345;28;20029;-75
2022/04/01 01:18:39;;;;;;;4.45;2.80;;;20.80;46.00;;;;;;5000400;28;20030;-75
2022/04/01 01:25:16;;;;;;;4.90;2.80;;;20.80;45.90;;;;;;4986235;28;20116;-73
2022/04/01 01:27:43;;;;;;;5.65;3.25;;;20.80;45.80;;;;;;5000191;28;20431;-74
2022/04/01 01:30:10;;;;;;;5.13;2.92;;;20.80;45.70;;;;;;5000279;28;20399;-73
2022/04/01 01:32:37;;;;;;;4.95;2.92;;;20.80;45.70;;;;;;4999780;28;20025;-74
2022/04/01 01:35:05;;;;;;;5.88;2.72;;;20.80;45.70;;;;;;4984320;28;20414;-74
2022/04/01 01:37:31;;;;;;;4.85;2.65;;;20.80;45.70;;;;;;5017727;28;20029;-74
2022/04/01 01:39:58;;;;;;;3.85;2.65;;;20.80;45.60;;;;;;4984112;28;20034;-73
2022/04/01 01:42:26;;;;;;;;;;;20.80;45.60;;;;;;5017719;28;20096;-74
2022/04/01 01:44:52;;;;;;;4.85;2.78;;;20.80;45.60;;;;;;5000061;28;20362;-74
2022/04/01 01:47:18;;;;;;;5.80;2.58;;;20.80;45.60;;;;;;5000239;28;20030;-73
2022/04/01 01:54:43;;;;;;;3.78;2.50;;;20.80;45.60;;;;;;5000176;28;20092;-73
2022/04/01 01:55:13;;;;;;;5.78;2.88;;;20.80;45.50;;;;;;4999669;28;20406;-74
2022/04/01 01:57:39;;;;;;;4.00;2.58;;;20.80;45.50;;;;;;4983923;28;20033;-74
2022/04/01 02:00:10;;;;;;;4.53;2.70;;;20.80;45.40;;;;;;4999734;28;20427;-74
2022/04/01 02:02:39;;;;;;;4.82;2.80;;;20.80;45.50;;;;;;4997548;28;20037;-74
2022/04/01 02:05:06;;;;;;;3.50;2.40;;;20.80;45.50;;;;;;4980623;28;20031;-74
2022/04/01 02:07:32;;;;;;;4.75;2.70;;;20.70;45.40;;;;;;5008447;28;20104;-73
2022/04/01 02:09:58;;;;;;;4.93;2.50;;;20.70;45.40;;;;;;5017472;28;20495;-73
2022/04/01 02:12:23;;;;;;;3.65;2.40;;;20.80;45.40;;;;;;5007805;28;20057;-73
2022/04/01 02:14:49;;;;;;;4.38;2.63;;;20.80;45.40;;;;;;4999636;28;20076;-73
2022/04/01 02:17:15;;;;;;;4.03;2.65;;;20.70;45.30;;;;;;5004277;28;20471;-73
2022/04/01 02:19:41;;;;;;;3.83;2.45;;;20.70;45.30;;;;;;4996431;28;20030;-74
2022/04/01 02:22:07;;;;;;;4.22;2.53;;;20.70;45.20;;;;;;5009668;28;20034;-72
2022/04/01 02:24:36;;;;;;;5.93;2.83;;;20.80;46.20;;;;;;5012901;28;20121;-73
2022/04/01 02:27:02;;;;;;;3.90;2.35;;;20.80;45.80;;;;;;4980857;28;20057;-73
2022/04/01 02:29:29;;;;;;;9.25;2.85;;;20.80;45.90;;;;;;5012880;28;20058;-72
2022/04/01 02:32:16;;;;;;;335.60;204.00;;;20.80;47.10;;;;;;5013787;28;20109;-72
2022/04/01 02:35:00;;;;;;;11.38;3.13;;;20.90;47.60;;;;;;5012588;28;20091;-72
2022/04/01 02:37:28;;;;;;;9.73;2.75;;;20.90;47.00;;;;;;5012814;28;20383;-72
2022/04/01 02:39:59;;;;;;;3.78;2.63;;;20.90;46.50;;;;;;5012738;28;20030;-72
2022/04/01 02:42:29;;;;;;;132.88;89.63;;;20.90;46.90;;;;;;5012269;28;20041;-71
2022/04/01 02:44:56;;;;;;;8.82;3.08;;;21.00;47.80;;;;;;5012381;28;20037;-72
2022/04/01 02:47:22;;;;;;;11.32;3.00;;;20.90;46.30;;;;;;5012768;28;20057;-72
2022/04/01 02:49:48;;;;;;;5.82;2.60;;;20.90;46.60;;;;;;5012778;28;20395;-71
2022/04/01 02:52:14;;;;;;;7.88;2.85;;;20.80;46.60;;;;;;5013324;28;20033;-72
2022/04/01 02:54:40;;;;;;;8.73;2.97;;;20.80;46.60;;;;;;4995957;28;20567;-71
2022/04/01 02:57:07;;;;;;;7.38;2.83;;;20.80;46.70;;;;;;5012514;28;20038;-72
2022/04/01 02:59:33;;;;;;;5.25;2.92;;;20.80;47.00;;;;;;5012299;28;20026;-72
2022/04/01 03:02:00;;;;;;;5.53;2.47;;;20.80;46.70;;;;;;5011902;28;20058;-71
2022/04/01 03:04:27;;;;;;;6.43;2.67;;;20.80;46.70;;;;;;5013312;28;20494;-72
2022/04/01 03:06:55;;;;;;;5.32;2.63;;;20.80;46.60;;;;;;5012360;28;20034;-72
2022/04/01 03:09:22;;;;;;;6.07;2.67;;;20.70;46.50;;;;;;4995945;28;20088;-72
2022/04/01 03:12:13;;;;;;;6.13;2.45;;;20.80;46.90;;;;;;5009529;28;20038;-72
2022/04/01 03:14:48;;;;;;;5.93;2.80;;;20.70;46.60;;;;;;5013187;28;20507;-72
2022/04/01 03:17:40;;;;;;;5.13;2.47;;;20.80;46.50;;;;;;5012194;28;20471;-71
2022/04/01 03:20:18;;;;;;;7.50;2.75;;;20.70;46.30;;;;;;5011951;28;20021;-72
2022/04/01 03:22:47;;;;;;;7.90;3.00;;;20.80;47.10;;;;;;5011490;28;20030;-71
2022/04/01 03:25:19;;;;;;;9.77;3.23;;;20.70;46.20;;;;;;5011854;28;20030;-72
2022/04/01 03:28:04;;;;;;;5.72;2.67;;;20.70;46.30;;;;;;5010636;28;20030;-71
2022/04/01 03:30:30;;;;;;;7.85;3.08;;;20.70;46.20;;;;;;5011475;28;20022;-71
2022/04/01 03:32:56;;;;;;;4.45;2.58;;;20.70;46.50;;;;;;5011404;28;20479;-71
2022/04/01 03:35:24;;;;;;;5.28;2.67;;;20.70;46.20;;;;;;5011664;28;20037;-72
2022/04/01 03:37:50;;;;;;;5.03;2.45;;;20.70;46.20;;;;;;5011705;28;20029;-72
2022/04/01 03:40:17;;;;;;;6.35;3.03;;;20.70;46.10;;;;;;5011342;28;20029;-71
2022/04/01 03:42:46;;;;;;;4.63;2.30;;;20.70;46.20;;;;;;5011151;28;20213;-72
2022/04/01 03:45:13;;;;;;;7.40;2.70;;;20.70;46.30;;;;;;5011109;28;20030;-71
2022/04/01 03:48:06;;;;;;;5.05;2.78;;;20.70;46.40;;;;;;5011454;28;20334;-71
2022/04/01 03:50:34;;;;;;;5.65;2.50;;;20.70;45.90;;;;;;5011351;28;20100;-71
2022/04/01 03:53:07;;;;;;;4.50;2.50;;;20.70;46.40;;;;;;5010987;28;20495;-71
2022/04/01 03:55:36;;;;;;;5.38;2.75;;;20.70;46.10;;;;;;5011351;28;20517;-72
2022/04/01 03:58:26;;;;;;;5.43;2.60;;;20.70;46.50;;;;;;5012485;28;20030;-72
2022/04/01 04:01:21;;;;;;;5.38;2.47;;;20.70;45.80;;;;;;5012400;28;20037;-72
2022/04/01 04:03:50;;;;;;;5.30;2.80;;;20.80;46.00;;;;;;4994429;28;20040;-72
2022/04/01 04:06:18;;;;;;;6.40;2.40;;;20.70;46.10;;;;;;5011016;28;20398;-72
2022/04/01 04:08:45;;;;;;;5.40;2.83;;;20.70;45.80;;;;;;5011110;28;20045;-71
2022/04/01 04:11:12;;;;;;;4.50;2.50;;;20.70;45.80;;;;;;5010896;28;20115;-72
2022/04/01 04:13:56;;;;;;;5.40;2.72;;;20.70;46.10;;;;;;5010596;28;20095;-72
2022/04/01 04:16:30;;;;;;;5.65;2.90;;;20.70;45.90;;;;;;5010624;28;20517;-72
2022/04/01 04:19:03;;;;;;;6.78;3.20;;;20.70;46.20;;;;;;5011165;28;20056;-72
2022/04/01 04:21:47;;;;;;;4.43;2.63;;;20.70;45.80;;;;;;5010640;28;20041;-72
2022/04/01 04:24:34;;;;;;;5.38;2.72;;;20.70;45.80;;;;;;4994334;28;20033;-72
2022/04/01 04:27:12;;;;;;;8.10;3.35;;;20.70;45.80;;;;;;5010665;28;20033;-72
2022/04/01 04:29:50;;;;;;;7.75;2.80;;;20.70;45.60;;;;;;5010680;28;20385;-72
2022/04/01 04:32:35;;;;;;;6.57;3.10;;;20.70;45.80;;;;;;5010583;28;20034;-72
2022/04/01 04:35:05;;;;;;;5.25;2.80;;;20.70;45.60;;;;;;4994325;28;20379;-71
2022/04/01 04:37:45;;;;;;;7.95;2.80;;;20.70;45.70;;;;;;5010815;28;20026;-72
2022/04/01 04:40:12;;;;;;;4.40;2.78;;;20.70;45.80;;;;;;5010232;28;20029;-72
2022/04/01 04:42:50;;;;;;;6.80;2.90;;;20.70;45.60;;;;;;5010304;28;20625;-72
2022/04/01 04:45:18;;;;;;;5.20;2.75;;;20.70;45.60;;;;;;5010416;28;20033;-72
2022/04/01 04:47:49;;;;;;;4.68;2.70;;;20.70;45.80;;;;;;5010518;28;20030;-71
2022/04/01 04:50:16;;;;;;;6.28;2.90;;;20.70;45.70;;;;;;5010629;28;20389;-72
2022/04/01 04:52:48;;;;;;;4.50;2.70;;;20.70;45.70;;;;;;5010120;28;20038;-72
2022/04/01 04:55:14;;;;;;;4.43;2.50;;;20.70;45.60;;;;;;5010077;28;20499;-72
2022/04/01 04:58:12;;;;;;;6.35;2.92;;;20.70;45.70;;;;;;5005087;28;20402;-72
2022/04/01 05:00:53;;;;;;;5.45;2.78;;;20.70;45.70;;;;;;4994467;28;20033;-72
2022/04/01 05:03:56;;;;;;;4.57;2.95;;;20.70;45.60;;;;;;5009980;28;20364;-72
2022/04/01 05:06:30;;;;;;;5.45;2.70;;;20.70;45.40;;;;;;4994152;28;20033;-72
2022/04/01 05:09:59;;;;;;;5.35;2.85;;;20.70;45.70;;;;;;5005916;28;20034;-72
2022/04/01 05:12:33;;;;;;;5.63;2.97;;;20.70;45.30;;;;;;4974451;28;20048;-72
2022/04/01 05:15:26;;;;;;;5.82;2.83;;;20.70;45.30;;;;;;5009999;28;20088;-72
2022/04/01 05:18:14;;;;;;;5.72;3.20;;;20.70;45.60;;;;;;5010222;28;20034;-72
2022/04/01 05:21:00;;;;;;;6.05;3.33;;;20.70;45.10;;;;;;4993803;28;20030;-72
2022/04/01 05:23:59;;;;;;;5.53;3.28;;;20.70;45.40;;;;;;4995422;28;20034;-72
2022/04/01 05:26:38;;;;;;;6.55;3.10;;;20.70;45.20;;;;;;5009903;28;20026;-72
2022/04/01 05:29:26;;;;;;;7.45;3.00;;;20.70;44.90;;;;;;5010958;28;20037;-72
2022/04/01 05:32:05;;;;;;;5.13;2.90;;;20.70;45.10;;;;;;5009875;28;20065;-72
2022/04/01 05:34:44;;;;;;;5.63;3.20;;;20.70;45.10;;;;;;5010041;28;20030;-72
2022/04/01 05:37:13;;;;;;;5.43;3.17;;;20.70;45.10;;;;;;4993823;28;20065;-72
2022/04/01 05:39:41;;;;;;;6.75;3.17;;;20.70;45.20;;;;;;5009932;28;20034;-72
2022/04/01 05:42:11;;;;;;;9.27;3.25;;;20.70;45.20;;;;;;5009762;28;20398;-71
2022/04/01 05:44:43;;;;;;;6.40;3.20;;;20.70;44.90;;;;;;5009642;28;20038;-72
2022/04/01 05:47:10;;;;;;;4.95;2.90;;;20.70;44.80;;;;;;5009784;28;20382;-72
2022/04/01 05:49:40;;;;;;;5.35;2.70;;;20.70;45.00;;;;;;5010020;28;20394;-72
2022/04/01 05:52:09;;;;;;;5.22;3.03;;;20.70;45.30;;;;;;5010747;28;20467;-72
2022/04/01 05:54:37;;;;;;;5.82;3.10;;;20.70;45.00;;;;;;5013206;28;20034;-72
2022/04/01 05:57:03;;;;;;;4.43;2.85;;;20.70;45.00;;;;;;5013327;28;20053;-72
2022/04/01 05:59:29;;;;;;;7.43;3.53;;;20.70;44.70;;;;;;4997379;28;20052;-72
2022/04/01 06:02:06;;;;;;;5.95;2.80;;;20.70;44.80;;;;;;5013171;28;20073;-72
2022/04/01 06:05:09;;;;;;;5.00;2.95;;;20.60;44.80;;;;;;5013344;28;20466;-72
2022/04/01 06:07:44;;;;;;;6.25;3.33;;;20.70;45.20;;;;;;4996988;28;20034;-72
2022/04/01 06:10:36;;;;;;;4.78;3.03;;;20.60;44.70;;;;;;5013333;28;20034;-72
2022/04/01 06:13:37;;;;;;;6.32;3.20;;;20.70;45.00;;;;;;5014011;28;20091;-72
2022/04/01 06:16:31;;;;;;;4.93;3.08;;;20.70;45.00;;;;;;5014340;28;20040;-72
2022/04/01 06:19:39;;;;;;;4.78;2.90;;;20.70;45.30;;;;;;5012917;28;20033;-72
2022/04/01 06:22:13;;;;;;;4.82;2.75;;;20.70;45.30;;;;;;4996542;28;20037;-72
2022/04/01 06:25:12;;;;;;;4.45;2.70;;;20.70;45.60;;;;;;5012882;28;20049;-72
2022/04/01 06:27:47;;;;;;;5.03;3.20;;;20.70;45.60;;;;;;4997067;28;20037;-72
2022/04/01 06:30:19;;;;;;;4.68;2.95;;;20.70;45.30;;;;;;5014111;28;20030;-72
2022/04/01 06:33:21;;;;;;;7.30;3.03;;;20.70;45.60;;;;;;5012487;28;20037;-72
2022/04/01 06:36:03;;;;;;;4.13;2.60;;;20.70;45.10;;;;;;4996404;28;20038;-72
2022/04/01 06:38:41;;;;;;;12.32;10.45;;;20.70;45.30;;;;;;4997143;28;20395;-72
2022/04/01 06:41:19;;;;;;;4.25;2.80;;;20.70;45.00;;;;;;5012771;28;20055;-72
2022/04/01 06:43:54;;;;;;;5.78;3.03;;;20.70;45.00;;;;;;5012272;28;20033;-72
2022/04/01 06:46:39;;;;;;;4.97;2.78;;;20.70;45.00;;;;;;5012667;28;20030;-72
2022/04/01 06:49:14;;;;;;;4.93;2.75;;;20.70;45.00;;;;;;5012914;28;20026;-72
2022/04/01 06:52:19;;;;;;;5.32;2.88;;;20.70;44.90;;;;;;4971868;28;20055;-72
2022/04/01 06:55:08;;;;;;;4.93;2.90;;;20.70;44.80;;;;;;4956132;28;20035;-72
2022/04/01 06:57:54;;;;;;;6.00;3.00;;;20.70;44.80;;;;;;4983054;28;20042;-72
2022/04/01 07:00:40;;;;;;;4.65;3.00;;;20.70;44.80;;;;;;4996205;28;20033;-72
2022/04/01 07:03:07;;;;;;;4.40;2.80;;;20.70;44.80;;;;;;5011555;28;20026;-72
2022/04/01 07:05:36;;;;;;;7.75;3.15;;;20.70;44.90;;;;;;5012111;28;20038;-72
2022/04/01 07:08:03;;;;;;;6.18;3.00;;;20.70;44.90;;;;;;5013342;28;20073;-72
2022/04/01 07:10:29;;;;;;;4.78;2.80;;;20.70;44.70;;;;;;5013747;28;20379;-72
2022/04/01 07:12:55;;;;;;;4.35;2.70;;;20.70;44.90;;;;;;5012998;28;20030;-72
2022/04/01 07:15:21;;;;;;;5.95;3.05;;;20.70;44.80;;;;;;5013249;28;20045;-71
2022/04/01 07:17:46;;;;;;;4.70;2.75;;;20.70;44.80;;;;;;5013429;28;20026;-71
2022/04/01 07:20:12;;;;;;;5.28;3.00;;;20.70;44.80;;;;;;5013106;28;20026;-72
2022/04/01 07:22:40;;;;;;;4.53;2.92;;;20.70;44.90;;;;;;5012577;28;20450;-71
2022/04/01 07:25:07;;;;;;;6.65;2.95;;;20.70;45.10;;;;;;5012797;28;20076;-72
2022/04/01 07:27:34;;;;;;;5.78;3.13;;;20.70;44.90;;;;;;5012889;28;20029;-72
2022/04/01 07:30:00;;;;;;;5.15;2.95;;;20.70;44.70;;;;;;5012982;28;20034;-72
2022/04/01 07:32:34;;;;;;;5.40;3.00;;;20.70;44.70;;;;;;5011352;28;20040;-72
2022/04/01 07:35:02;;;;;;;4.70;2.95;;;20.70;44.60;;;;;;5011761;28;20029;-72
2022/04/01 07:37:29;;;;;;;5.25;3.17;;;20.70;44.50;;;;;;5012813;28;20036;-72
2022/04/01 07:39:57;;;;;;;5.05;3.20;;;20.70;44.60;;;;;;5011669;28;20164;-72
2022/04/01 07:42:24;;;;;;;4.10;2.75;;;20.80;44.50;;;;;;5012381;28;20037;-72
2022/04/01 07:44:50;;;;;;;3.67;2.53;;;20.70;44.50;;;;;;5012366;28;20077;-72
2022/04/01 07:47:18;;;;;;;5.03;3.20;;;20.70;44.50;;;;;;4995233;28;20395;-72
2022/04/01 07:49:45;;;;;;;5.05;2.88;;;20.70;45.10;;;;;;5011685;28;20034;-72
2022/04/01 07:52:13;;;;;;;3.42;2.38;;;20.70;45.30;;;;;;5010988;28;20467;-72
2022/04/01 07:54:41;;;;;;;4.05;2.63;;;20.70;44.60;;;;;;5012583;28;20042;-72
2022/04/01 07:57:09;;;;;;;6.10;2.95;;;20.70;44.50;;;;;;5011508;28;20462;-72
2022/04/01 07:59:35;;;;;;;4.93;2.90;;;20.80;44.50;;;;;;5012364;28;20509;-72
2022/04/01 08:02:04;;;;;;;5.70;2.95;;;20.70;44.60;;;;;;5012089;28;20395;-72
2022/04/01 08:04:30;;;;;;;5.10;3.10;;;20.80;44.60;;;;;;5010893;28;20116;-71
2022/04/01 08:06:58;;;;;;;4.60;3.03;;;20.70;44.70;;;;;;4994753;28;20117;-71
2022/04/01 08:09:24;;;;;;;4.28;2.97;;;20.80;44.50;;;;;;5012716;28;20032;-72
2022/04/01 08:11:54;;;;;;;4.30;2.67;;;20.70;44.50;;;;;;5011054;28;20072;-72
2022/04/01 08:14:20;;;;;;;4.72;2.90;;;20.80;44.50;;;;;;5010275;28;20037;-72
2022/04/01 08:16:48;;;;;;;5.43;3.10;;;20.80;44.60;;;;;;5011493;28;20060;-72
2022/04/01 08:19:14;;;;;;;5.70;3.13;;;20.80;44.60;;;;;;5012090;28;20030;-72
2022/04/01 08:21:40;;;;;;;4.72;2.70;;;20.80;44.50;;;;;;5011998;28;20038;-72
2022/04/01 08:24:09;;;;;;;5.70;3.38;;;20.80;44.50;;;;;;5011618;28;20371;-72
2022/04/01 08:26:35;;;;;;;5.88;3.13;;;20.70;44.50;;;;;;5010936;28;20032;-72
2022/04/01 08:29:02;;;;;;;5.43;3.08;;;20.70;44.50;;;;;;5011727;28;20022;-71
2022/04/01 08:31:30;;;;;;;4.75;2.90;;;20.80;44.60;;;;;;5010749;28;20026;-72
2022/04/01 08:33:56;;;;;;;5.97;3.20;;;20.80;44.60;;;;;;5010283;28;20065;-72
2022/04/01 08:36:22;;;;;;;4.70;2.70;;;20.70;44.40;;;;;;5010643;28;20030;-72
2022/04/01 08:38:48;;;;;;;5.22;3.20;;;20.70;44.40;;;;;;5010618;28;20030;-72
2022/04/01 08:41:22;;;;;;;5.85;2.90;;;20.70;44.50;;;;;;5011708;28;20109;-72
2022/04/01 08:43:49;;;;;;;4.75;2.72;;;20.80;44.50;;;;;;5010358;28;20301;-72
2022/04/01 08:46:17;;;;;;;4.70;3.20;;;20.80;44.50;;;;;;5010329;28;20525;-71
2022/04/01 08:48:43;;;;;;;5.82;3.08;;;20.80;44.50;;;;;;5011583;28;20033;-72
2022/04/01 08:51:10;;;;;;;5.78;3.20;;;20.80;44.30;;;;;;5011717;28;20022;-72
2022/04/01 08:53:38;;;;;;;5.72;3.20;;;20.70;44.30;;;;;;5010224;28;20033;-72
2022/04/01 08:56:05;;;;;;;4.45;2.90;;;20.80;44.40;;;;;;5010292;28;20076;-72
2022/04/01 08:58:33;;;;;;;5.05;2.90;;;20.80;44.30;;;;;;4993904;28;20026;-72
2022/04/01 09:01:02;;;;;;;6.63;2.97;;;20.80;44.30;;;;;;4994325;28;20041;-72
2022/04/01 09:03:28;;;;;;;5.13;2.78;;;20.80;44.40;;;;;;5009833;28;20030;-72
2022/04/01 09:05:58;;;;;;;3.22;2.47;;;20.70;44.30;;;;;;5010632;28;20666;-71
2022/04/01 09:08:26;;;;;;;5.43;3.00;;;20.80;44.40;;;;;;5011451;28;20026;-72
2022/04/01 09:10:56;;;;;;;4.80;2.90;;;20.80;44.30;;;;;;5011599;28;20022;-72
2022/04/01 09:13:23;;;;;;;4.68;2.85;;;20.80;44.30;;;;;;5009816;28;20084;-72
2022/04/01 09:15:50;;;;;;;6.03;3.25;;;20.80;44.30;;;;;;5010125;28;20483;-72
2022/04/01 09:18:35;;;;;;;4.80;2.83;;;20.70;44.30;;;;;;5010133;28;20025;-71
2022/04/01 09:21:01;;;;;;;4.68;2.78;;;20.80;44.30;;;;;;5010326;28;20085;-72
2022/04/01 09:23:27;;;;;;;3.75;2.50;;;20.80;44.30;;;;;;5009809;28;20037;-71
2022/04/01 09:25:54;;;;;;;5.20;2.88;;;20.80;44.20;;;;;;5012462;28;20026;-72
2022/04/01 09:28:31;;;;;;;5.57;2.88;;;20.80;44.20;;;;;;5014083;28;20033;-72
2022/04/01 09:31:12;;;;;;;7.20;3.17;;;20.80;44.20;;;;;;5015419;28;20398;-72
2022/04/01 09:33:43;;;;;;;5.75;2.92;;;20.80;44.10;;;;;;5013685;28;20029;-72
2022/04/01 09:36:29;;;;;;;6.15;2.63;;;20.80;44.20;;;;;;5013884;28;20034;-72
2022/04/01 09:39:08;;;;;;;6.47;3.00;;;20.80;44.30;;;;;;5014111;28;20034;-72
2022/04/01 09:41:42;;;;;;;4.60;2.83;;;20.80;44.20;;;;;;5014938;28;20033;-72
2022/04/01 09:44:22;;;;;;;4.32;3.08;;;20.80;44.20;;;;;;5013114;28;20511;-71
2022/04/01 09:46:49;;;;;;;4.10;2.63;;;20.80;44.10;;;;;;5014832;28;20037;-72
2022/04/01 09:49:33;;;;;;;4.82;2.67;;;20.80;44.00;;;;;;4997425;28;20018;-72
2022/04/01 09:51:59;;;;;;;5.80;3.30;;;20.80;44.10;;;;;;5014694;28;20390;-71
2022/04/01 09:54:26;;;;;;;4.60;2.85;;;20.80;44.00;;;;;;5013420;28;20418;-71
2022/04/01 09:56:54;;;;;;;3.88;2.42;;;20.80;44.10;;;;;;5013625;28;20036;-71
2022/04/01 09:59:23;;;;;;;3.88;2.72;;;20.80;44.10;;;;;;5013648;28;20041;-71
2022/04/01 10:01:49;;;;;;;4.28;2.90;;;20.80;44.00;;;;;;4996944;28;20033;-72
2022/04/01 10:04:15;;;;;;;35.28;33.13;;;20.80;44.60;;;;;;5014270;28;20030;-71
2022/04/01 10:06:41;;;;;;;4.75;2.80;;;20.90;44.10;;;;;;5014450;28;20030;-72
2022/04/01 10:09:09;;;;;;;6.63;2.90;;;20.90;44.10;;;;;;5013394;28;20034;-72
2022/04/01 10:11:37;;;;;;;5.40;3.00;;;20.90;43.90;;;;;;5013449;28;20113;-71
2022/04/01 10:14:11;;;;;;;4.53;3.00;;;20.90;43.90;;;;;;5012844;28;20038;-72
2022/04/01 10:16:41;;;;;;;5.70;3.05;;;20.90;43.80;;;;;;5013100;28;20033;-72
2022/04/01 10:19:11;;;;;;;5.18;3.05;;;20.90;43.80;;;;;;4996811;28;20065;-72
2022/04/01 10:21:41;;;;;;;5.32;2.63;;;20.90;43.70;;;;;;5014291;28;20038;-72
2022/04/01 10:24:13;;;;;;;;;;;20.90;43.80;;;;;;5013016;28;20092;-72
2022/04/01 10:26:48;;;;;;;4.10;2.72;;;20.90;43.80;;;;;;5013046;28;19931;-72
2022/04/01 10:29:14;;;;;;;3.72;2.35;;;20.90;43.70;;;;;;5014067;28;20028;-72
2022/04/01 10:31:42;;;;;;;5.00;3.00;;;20.90;43.80;;;;;;5014657;28;20113;-72
2022/04/01 10:34:24;;;;;;;5.03;3.42;;;20.90;43.70;;;;;;5012441;28;20042;-72
2022/04/01 10:37:00;;;;;;;5.50;2.90;;;20.90;43.70;;;;;;5013772;28;20033;-72
2022/04/01 10:39:26;;;;;;;6.45;2.85;;;20.90;43.70;;;;;;5014050;28;20026;-72
2022/04/01 10:42:06;;;;;;;5.35;2.90;;;20.90;43.70;;;;;;5013727;28;20032;-72
2022/04/01 10:44:52;;;;;;;5.03;3.03;;;20.90;43.60;;;;;;5013536;28;20096;-72
2022/04/01 10:47:22;;;;;;;4.70;2.83;;;20.90;43.50;;;;;;5013688;28;20386;-72
2022/04/01 10:52:32;;;;;;;6.25;3.00;;;20.90;43.70;;;;;;5013780;28;19975;-72
2022/04/01 10:55:05;;;;;;;5.00;2.67;;;20.90;43.70;;;;;;5012622;28;20029;-72
2022/04/01 10:57:34;;;;;;;4.72;2.78;;;20.90;43.70;;;;;;5012422;28;20048;-72
2022/04/01 11:00:04;;;;;;;6.25;3.00;;;20.90;43.70;;;;;;5012305;28;20030;-71
2022/04/01 11:02:30;;;;;;;;;;;20.90;43.70;;;;;;5012654;28;20041;-72
2022/04/01 11:04:55;;;;;;;4.63;2.80;;;20.90;43.80;;;;;;5013080;28;20317;-72
2022/04/01 11:07:21;;;;;;;6.75;3.13;;;20.90;43.80;;;;;;5011859;28;20136;-72
2022/04/01 11:09:59;;;;;;;7.18;2.72;;;20.90;43.80;;;;;;5013656;28;20029;-72
2022/04/01 11:12:30;;;;;;;4.30;2.65;;;20.90;43.80;;;;;;5011965;28;20037;-72
2022/04/01 11:17:51;;;;;;;4.03;2.80;;;20.90;43.70;;;;;;5012006;28;20034;-72
2022/04/01 11:20:21;;;;;;;3.97;2.65;;;21.00;43.80;;;;;;5011704;28;20474;-72
2022/04/01 11:22:47;;;;;;;4.80;2.80;;;21.00;43.80;;;;;;5011763;28;20117;-72
2022/04/01 11:25:13;;;;;;;4.93;3.05;;;21.00;43.80;;;;;;5012891;28;20444;-72
2022/04/01 11:28:03;;;;;;;5.45;2.65;;;20.90;43.70;;;;;;5012994;28;20041;-72
2022/04/01 11:30:31;;;;;;;4.20;2.75;;;20.90;43.70;;;;;;5012920;28;20018;-72
2022/04/01 11:33:07;;;;;;;5.18;2.97;;;20.90;43.70;;;;;;4995135;28;20057;-72
2022/04/01 11:35:39;;;;;;;4.25;2.75;;;20.90;43.70;;;;;;5012681;28;20450;-72
2022/04/01 11:38:06;;;;;;;3.80;2.53;;;20.90;43.70;;;;;;5012905;28;20034;-72
2022/04/01 11:40:35;;;;;;;4.35;2.70;;;20.90;43.70;;;;;;5011451;28;20441;-72
2022/04/01 11:43:03;;;;;;;4.28;2.70;;;20.90;43.70;;;;;;5012420;28;20026;-72
2022/04/01 11:45:42;;;;;;;4.32;2.67;;;20.90;43.70;;;;;;5044214;23;20069;-66
2022/04/01 11:48:22;;;;;;;4.18;2.70;;;20.90;43.70;;;;;;5052187;28;20397;-67
2022/04/01 11:50:55;;;;;;;4.35;2.70;;;20.90;43.70;;;;;;5051301;28;20029;-66
2022/04/01 11:53:26;;;;;;;157.82;147.27;;;20.90;43.70;;;;;;5051988;28;20322;-67
2022/04/01 11:55:53;;;;;;;4.55;2.80;;;20.90;43.70;;;;;;5048010;28;20169;-66
2022/04/01 11:58:21;;;;;;;5.63;2.67;;;20.90;43.70;;;;;;5037577;28;20029;-66
2022/04/01 12:00:48;;;;;;;4.72;2.90;;;20.90;43.70;;;;;;5054099;28;20032;-66
2022/04/01 12:03:18;;;;;;;4.68;2.47;;;20.90;43.70;;;;;;5071696;28;20028;-66
2022/04/01 12:05:44;;;;;;;4.05;2.47;;;20.90;43.70;;;;;;5037972;28;20031;-66
2022/04/01 12:10:57;;;;;;;5.85;3.00;;;20.90;43.60;;;;;;5072031;28;20397;-67
2022/04/01 12:13:25;;;;;;;3.92;2.65;;;20.90;43.70;;;;;;5071566;28;20043;-66
2022/04/01 12:15:52;;;;;;;5.10;2.70;;;20.90;43.60;;;;;;5071501;28;20036;-66
2022/04/01 12:18:20;;;;;;;68.90;64.88;;;20.90;43.70;;;;;;5052947;28;20024;-66
2022/04/01 12:20:52;;;;;;;110.25;62.92;;;20.90;42.90;;;;;;5071751;28;20435;-66
2022/04/01 12:23:19;;;;;;;5.72;3.00;;;20.90;43.30;;;;;;5061784;28;20033;-66
2022/04/01 12:25:49;;;;;;;78.82;73.75;;;20.90;43.40;;;;;;5071459;28;20024;-66
2022/04/01 12:28:16;;;;;;;68.65;61.08;;;20.90;43.30;;;;;;5071452;28;20029;-67
2022/04/01 12:30:43;;;;;;;10.57;3.78;;;20.90;43.40;;;;;;5070097;28;20024;-67
2022/04/01 12:33:24;;;;;;;8.48;3.00;;;20.90;43.50;;;;;;5053595;28;20079;-66
2022/04/01 12:36:02;;;;;;;512.47;321.33;;;21.00;43.40;;;;;;5071484;28;20036;-67
2022/04/01 12:38:30;;;;;;;72.43;67.97;;;21.00;43.10;;;;;;5071312;28;20033;-67
2022/04/01 12:40:58;;;;;;;10.30;3.40;;;21.00;43.70;;;;;;5070072;28;20465;-67
2022/04/01 12:43:39;;;;;;;9.63;3.53;;;21.00;43.60;;;;;;5069840;28;20086;-68
2022/04/01 12:46:19;;;;;;;7.00;3.00;;;21.00;43.80;;;;;;5071285;28;20028;-67
2022/04/01 12:48:51;;;;;;;90.05;83.72;;;21.00;43.80;;;;;;5070235;28;20419;-67
2022/04/01 12:51:26;;;;;;;8.77;3.20;;;21.00;44.10;;;;;;5069914;28;20032;-67
2022/04/01 12:53:58;;;;;;;9.70;3.30;;;21.00;44.10;;;;;;5070816;28;20103;-67
2022/04/01 12:56:29;;;;;;;10.85;3.38;;;21.00;43.70;;;;;;5070955;28;20119;-68
2022/04/01 12:58:57;;;;;;;8.90;3.53;;;20.90;43.50;;;;;;5069862;28;20503;-68
2022/04/01 13:01:25;;;;;;;9.20;3.80;;;20.90;43.60;;;;;;5070705;28;20444;-68
2022/04/01 13:03:51;;;;;;;9.73;3.17;;;20.90;43.90;;;;;;5070774;28;20037;-67
2022/04/01 13:06:17;;;;;;;8.77;3.15;;;20.90;43.80;;;;;;5070039;28;20103;-67
2022/04/01 13:08:43;;;;;;;9.23;3.33;;;20.90;43.80;;;;;;5069906;28;20530;-67
2022/04/01 13:11:13;;;;;;;8.55;3.50;;;20.90;43.80;;;;;;5071055;28;20027;-67
2022/04/01 13:13:39;;;;;;;4.88;2.90;;;20.90;44.00;;;;;;5069749;28;20120;-67
2022/04/01 13:16:06;;;;;;;9.50;3.03;;;20.90;44.10;;;;;;5069624;28;20087;-67
2022/04/01 13:18:32;;;;;;;10.85;3.20;;;20.90;44.20;;;;;;5053105;28;20031;-67
2022/04/01 13:20:58;;;;;;;6.88;3.28;;;20.90;44.30;;;;;;5071016;28;20024;-67
2022/04/01 13:23:27;;;;;;;8.75;3.55;;;21.00;44.40;;;;;;5069325;28;20032;-67